sensor_id;sensor_type;location;lat;lon;timestamp;P1;durP1;ratioP1;P2;durP2;ratioP2
32152;SDS011;18656;50.580;11.392;2022-07-30T00:01:34;3.40;;;3.20;;
32152;SDS011;18656;50.580;11.392;2022-07-30T00:04:02;4.20;;;3.97;;
32152;SDS011;18656;50.580;11.392;2022-07-30T00:06:29;3.97;;;3.75;;
32152;SDS011;18656;50.580;11.392;2022-07-30T00:08:57;3.47;;;3.28;;
32152;SDS011;18656;50.580;11.392;2022-07-30T00:11:24;4.70;;;4.15;;
32152;SDS011;18656;50.580;11.392;2022-07-30T00:13:53;4.20;;;3.92;;
32152;SDS011;18656;50.580;11.392;2022-07-30T00:16:20;3.72;;;3.53;;
32152;SDS011;18656;50.580;11.392;2022-07-30T00:18:47;3.75;;;3.47;;
32152;SDS011;18656;50.580;11.392;2022-07-30T00:21:16;4.40;;;4.10;;
32152;SDS011;18656;50.580;11.392;2022-07-30T00:23:58;3.90;;;3.70;;
32152;SDS011;18656;50.580;11.392;2022-07-30T00:26:27;3.70;;;3.50;;
32152;SDS011;18656;50.580;11.392;2022-07-30T00:28:54;4.35;;;3.95;;
32152;SDS011;18656;50.580;11.392;2022-07-30T00:31:21;3.90;;;3.65;;
32152;SDS011;18656;50.580;11.392;2022-07-30T00:33:48;3.63;;;3.42;;
32152;SDS011;18656;50.580;11.392;2022-07-30T00:36:16;3.38;;;3.28;;
32152;SDS011;18656;50.580;11.392;2022-07-30T00:38:43;3.65;;;3.45;;
32152;SDS011;18656;50.580;11.392;2022-07-30T00:41:10;3.72;;;3.53;;
32152;SDS011;18656;50.580;11.392;2022-07-30T00:43:37;3.45;;;3.25;;
32152;SDS011;18656;50.580;11.392;2022-07-30T00:46:05;3.90;;;3.70;;
32152;SDS011;18656;50.580;11.392;2022-07-30T00:48:32;4.50;;;4.20;;
32152;SDS011;18656;50.580;11.392;2022-07-30T00:50:59;4.40;;;4.10;;
32152;SDS011;18656;50.580;11.392;2022-07-30T00:53:28;3.78;;;3.58;;
32152;SDS011;18656;50.580;11.392;2022-07-30T00:55:55;4.15;;;3.80;;
32152;SDS011;18656;50.580;11.392;2022-07-30T00:58:22;4.00;;;3.80;;
32152;SDS011;18656;50.580;11.392;2022-07-30T01:00:49;4.45;;;4.05;;
32152;SDS011;18656;50.580;11.392;2022-07-30T01:03:17;4.15;;;3.90;;
32152;SDS011;18656;50.580;11.392;2022-07-30T01:05:44;4.68;;;4.28;;
32152;SDS011;18656;50.580;11.392;2022-07-30T01:08:11;4.82;;;3.92;;
32152;SDS011;18656;50.580;11.392;2022-07-30T01:10:38;3.42;;;3.33;;
32152;SDS011;18656;50.580;11.392;2022-07-30T01:13:05;4.05;;;3.67;;
32152;SDS011;18656;50.580;11.392;2022-07-30T01:15:33;3.80;;;3.50;;
32152;SDS011;18656;50.580;11.392;2022-07-30T01:18:01;3.75;;;3.45;;
32152;SDS011;18656;50.580;11.392;2022-07-30T01:23:27;3.60;;;3.40;;
32152;SDS011;18656;50.580;11.392;2022-07-30T01:26:01;3.88;;;3.67;;
32152;SDS011;18656;50.580;11.392;2022-07-30T01:28:31;4.10;;;3.83;;
32152;SDS011;18656;50.580;11.392;2022-07-30T01:30:59;3.65;;;3.35;;
32152;SDS011;18656;50.580;11.392;2022-07-30T01:33:27;4.10;;;3.72;;
32152;SDS011;18656;50.580;11.392;2022-07-30T01:35:55;3.88;;;3.53;;
32152;SDS011;18656;50.580;11.392;2022-07-30T01:38:23;4.00;;;3.60;;
32152;SDS011;18656;50.580;11.392;2022-07-30T01:40:51;3.92;;;3.72;;
32152;SDS011;18656;50.580;11.392;2022-07-30T01:43:19;3.83;;;3.63;;
32152;SDS011;18656;50.580;11.392;2022-07-30T01:45:47;3.28;;;3.17;;
32152;SDS011;18656;50.580;11.392;2022-07-30T01:48:15;3.67;;;3.38;;
32152;SDS011;18656;50.580;11.392;2022-07-30T01:50:44;3.85;;;3.53;;
32152;SDS011;18656;50.580;11.392;2022-07-30T01:53:16;3.55;;;3.25;;
32152;SDS011;18656;50.580;11.392;2022-07-30T01:55:45;3.63;;;3.42;;
32152;SDS011;18656;50.580;11.392;2022-07-30T01:58:12;3.40;;;3.20;;
32152;SDS011;18656;50.580;11.392;2022-07-30T02:00:41;3.58;;;3.42;;
32152;SDS011;18656;50.580;11.392;2022-07-30T02:03:09;4.43;;;3.42;;
32152;SDS011;18656;50.580;11.392;2022-07-30T02:05:37;3.45;;;3.20;;
32152;SDS011;18656;50.580;11.392;2022-07-30T02:08:11;3.40;;;3.10;;
32152;SDS011;18656;50.580;11.392;2022-07-30T02:10:41;3.30;;;3.20;;
32152;SDS011;18656;50.580;11.392;2022-07-30T02:13:10;3.28;;;3.03;;
32152;SDS011;18656;50.580;11.392;2022-07-30T02:15:46;3.53;;;3.30;;
32152;SDS011;18656;50.580;11.392;2022-07-30T02:18:27;3.70;;;3.50;;
32152;SDS011;18656;50.580;11.392;2022-07-30T02:21:02;4.07;;;3.55;;
32152;SDS011;18656;50.580;11.392;2022-07-30T02:23:40;3.25;;;3.08;;
32152;SDS011;18656;50.580;11.392;2022-07-30T02:26:08;4.38;;;3.78;;
32152;SDS011;18656;50.580;11.392;2022-07-30T02:28:41;4.20;;;4.00;;
32152;SDS011;18656;50.580;11.392;2022-07-30T02:31:09;4.68;;;4.28;;
32152;SDS011;18656;50.580;11.392;2022-07-30T02:33:43;4.03;;;3.60;;
32152;SDS011;18656;50.580;11.392;2022-07-30T02:36:14;4.35;;;4.05;;
32152;SDS011;18656;50.580;11.392;2022-07-30T02:38:44;4.13;;;3.92;;
32152;SDS011;18656;50.580;11.392;2022-07-30T02:41:12;4.38;;;4.07;;
32152;SDS011;18656;50.580;11.392;2022-07-30T02:43:39;4.57;;;4.28;;
32152;SDS011;18656;50.580;11.392;2022-07-30T02:46:08;4.55;;;4.22;;
32152;SDS011;18656;50.580;11.392;2022-07-30T02:48:37;3.85;;;3.65;;
32152;SDS011;18656;50.580;11.392;2022-07-30T02:51:07;3.97;;;3.67;;
32152;SDS011;18656;50.580;11.392;2022-07-30T02:53:36;5.07;;;4.03;;
32152;SDS011;18656;50.580;11.392;2022-07-30T02:56:04;4.07;;;3.88;;
32152;SDS011;18656;50.580;11.392;2022-07-30T02:58:33;3.85;;;3.65;;
32152;SDS011;18656;50.580;11.392;2022-07-30T03:01:02;4.25;;;4.00;;
32152;SDS011;18656;50.580;11.392;2022-07-30T03:03:30;3.83;;;3.55;;
32152;SDS011;18656;50.580;11.392;2022-07-30T03:05:58;3.60;;;3.47;;
32152;SDS011;18656;50.580;11.392;2022-07-30T03:08:26;5.45;;;3.40;;
32152;SDS011;18656;50.580;11.392;2022-07-30T03:10:54;3.70;;;3.40;;
32152;SDS011;18656;50.580;11.392;2022-07-30T03:13:22;3.53;;;3.40;;
32152;SDS011;18656;50.580;11.392;2022-07-30T03:15:50;3.53;;;3.13;;
32152;SDS011;18656;50.580;11.392;2022-07-30T03:18:18;3.65;;;3.35;;
32152;SDS011;18656;50.580;11.392;2022-07-30T03:20:47;3.22;;;2.95;;
32152;SDS011;18656;50.580;11.392;2022-07-30T03:23:15;3.28;;;3.08;;
32152;SDS011;18656;50.580;11.392;2022-07-30T03:25:48;3.40;;;3.20;;
32152;SDS011;18656;50.580;11.392;2022-07-30T03:28:20;3.22;;;3.03;;
32152;SDS011;18656;50.580;11.392;2022-07-30T03:30:47;4.35;;;3.20;;
32152;SDS011;18656;50.580;11.392;2022-07-30T03:33:15;3.03;;;2.85;;
32152;SDS011;18656;50.580;11.392;2022-07-30T03:35:42;4.07;;;3.28;;
32152;SDS011;18656;50.580;11.392;2022-07-30T03:38:11;3.50;;;3.17;;
32152;SDS011;18656;50.580;11.392;2022-07-30T03:40:39;3.47;;;3.13;;
32152;SDS011;18656;50.580;11.392;2022-07-30T03:43:09;3.28;;;3.00;;
32152;SDS011;18656;50.580;11.392;2022-07-30T03:45:58;3.40;;;3.20;;
32152;SDS011;18656;50.580;11.392;2022-07-30T03:48:26;3.53;;;3.33;;
32152;SDS011;18656;50.580;11.392;2022-07-30T03:50:53;4.03;;;3.65;;
32152;SDS011;18656;50.580;11.392;2022-07-30T03:53:21;3.20;;;3.00;;
32152;SDS011;18656;50.580;11.392;2022-07-30T03:55:50;3.30;;;3.00;;
32152;SDS011;18656;50.580;11.392;2022-07-30T03:58:18;3.35;;;3.15;;
32152;SDS011;18656;50.580;11.392;2022-07-30T04:00:46;5.00;;;3.13;;
32152;SDS011;18656;50.580;11.392;2022-07-30T04:03:24;3.58;;;3.28;;
32152;SDS011;18656;50.580;11.392;2022-07-30T04:05:51;3.70;;;3.50;;
32152;SDS011;18656;50.580;11.392;2022-07-30T04:08:18;3.30;;;3.10;;
32152;SDS011;18656;50.580;11.392;2022-07-30T04:10:46;3.50;;;3.30;;
32152;SDS011;18656;50.580;11.392;2022-07-30T04:13:13;3.42;;;3.22;;
32152;SDS011;18656;50.580;11.392;2022-07-30T04:15:46;3.15;;;2.95;;
32152;SDS011;18656;50.580;11.392;2022-07-30T04:18:36;3.30;;;3.10;;
32152;SDS011;18656;50.580;11.392;2022-07-30T04:21:04;3.15;;;3.05;;
32152;SDS011;18656;50.580;11.392;2022-07-30T04:23:41;3.40;;;3.10;;
32152;SDS011;18656;50.580;11.392;2022-07-30T04:26:29;4.65;;;3.20;;
32152;SDS011;18656;50.580;11.392;2022-07-30T04:28:58;3.10;;;3.00;;
32152;SDS011;18656;50.580;11.392;2022-07-30T04:31:26;4.53;;;3.22;;
32152;SDS011;18656;50.580;11.392;2022-07-30T04:33:53;4.40;;;2.90;;
32152;SDS011;18656;50.580;11.392;2022-07-30T04:36:28;3.30;;;3.10;;
32152;SDS011;18656;50.580;11.392;2022-07-30T04:38:56;3.05;;;2.88;;
32152;SDS011;18656;50.580;11.392;2022-07-30T04:41:23;2.85;;;2.75;;
32152;SDS011;18656;50.580;11.392;2022-07-30T04:43:50;4.72;;;3.00;;
32152;SDS011;18656;50.580;11.392;2022-07-30T04:46:18;3.60;;;2.90;;
32152;SDS011;18656;50.580;11.392;2022-07-30T04:48:49;5.03;;;3.20;;
32152;SDS011;18656;50.580;11.392;2022-07-30T04:51:19;3.10;;;2.90;;
32152;SDS011;18656;50.580;11.392;2022-07-30T04:53:49;5.22;;;2.92;;
32152;SDS011;18656;50.580;11.392;2022-07-30T04:56:17;2.83;;;2.72;;
32152;SDS011;18656;50.580;11.392;2022-07-30T04:58:45;3.42;;;2.70;;
32152;SDS011;18656;50.580;11.392;2022-07-30T05:01:15;2.97;;;2.80;;
32152;SDS011;18656;50.580;11.392;2022-07-30T05:03:42;2.78;;;2.58;;
32152;SDS011;18656;50.580;11.392;2022-07-30T05:06:10;2.65;;;2.50;;
32152;SDS011;18656;50.580;11.392;2022-07-30T05:08:38;3.13;;;2.75;;
32152;SDS011;18656;50.580;11.392;2022-07-30T05:11:05;3.95;;;3.13;;
32152;SDS011;18656;50.580;11.392;2022-07-30T05:13:32;2.63;;;2.50;;
32152;SDS011;18656;50.580;11.392;2022-07-30T05:16:03;2.83;;;2.63;;
32152;SDS011;18656;50.580;11.392;2022-07-30T05:18:31;2.90;;;2.70;;
32152;SDS011;18656;50.580;11.392;2022-07-30T05:20:58;4.00;;;2.75;;
32152;SDS011;18656;50.580;11.392;2022-07-30T05:23:25;3.00;;;2.85;;
32152;SDS011;18656;50.580;11.392;2022-07-30T05:25:52;2.45;;;2.35;;
32152;SDS011;18656;50.580;11.392;2022-07-30T05:28:19;3.80;;;2.70;;
32152;SDS011;18656;50.580;11.392;2022-07-30T05:30:47;2.92;;;2.60;;
32152;SDS011;18656;50.580;11.392;2022-07-30T05:33:15;2.90;;;2.80;;
32152;SDS011;18656;50.580;11.392;2022-07-30T05:35:42;2.67;;;2.55;;
32152;SDS011;18656;50.580;11.392;2022-07-30T05:38:09;3.05;;;2.90;;
32152;SDS011;18656;50.580;11.392;2022-07-30T05:40:36;2.53;;;2.42;;
32152;SDS011;18656;50.580;11.392;2022-07-30T05:43:03;2.88;;;2.70;;
32152;SDS011;18656;50.580;11.392;2022-07-30T05:45:31;3.15;;;2.95;;
32152;SDS011;18656;50.580;11.392;2022-07-30T05:47:58;2.95;;;2.85;;
32152;SDS011;18656;50.580;11.392;2022-07-30T05:50:25;3.50;;;3.35;;
32152;SDS011;18656;50.580;11.392;2022-07-30T05:52:52;3.58;;;3.38;;
32152;SDS011;18656;50.580;11.392;2022-07-30T05:55:21;3.83;;;2.90;;
32152;SDS011;18656;50.580;11.392;2022-07-30T05:57:48;5.45;;;4.38;;
32152;SDS011;18656;50.580;11.392;2022-07-30T06:00:15;3.88;;;3.60;;
32152;SDS011;18656;50.580;11.392;2022-07-30T06:02:43;3.70;;;3.40;;
32152;SDS011;18656;50.580;11.392;2022-07-30T06:05:10;3.60;;;3.17;;
32152;SDS011;18656;50.580;11.392;2022-07-30T06:07:37;4.18;;;3.08;;
32152;SDS011;18656;50.580;11.392;2022-07-30T06:10:04;3.20;;;3.00;;
32152;SDS011;18656;50.580;11.392;2022-07-30T06:12:32;2.85;;;2.65;;
32152;SDS011;18656;50.580;11.392;2022-07-30T06:14:59;3.13;;;2.92;;
32152;SDS011;18656;50.580;11.392;2022-07-30T06:17:26;3.45;;;2.80;;
32152;SDS011;18656;50.580;11.392;2022-07-30T06:19:53;2.78;;;2.63;;
32152;SDS011;18656;50.580;11.392;2022-07-30T06:22:21;2.55;;;2.45;;
32152;SDS011;18656;50.580;11.392;2022-07-30T06:24:51;2.63;;;2.42;;
32152;SDS011;18656;50.580;11.392;2022-07-30T06:27:18;2.95;;;2.72;;
32152;SDS011;18656;50.580;11.392;2022-07-30T06:29:45;2.40;;;2.30;;
32152;SDS011;18656;50.580;11.392;2022-07-30T06:32:13;4.93;;;2.92;;
32152;SDS011;18656;50.580;11.392;2022-07-30T06:34:40;3.10;;;2.80;;
32152;SDS011;18656;50.580;11.392;2022-07-30T06:37:07;9.27;;;2.88;;
32152;SDS011;18656;50.580;11.392;2022-07-30T06:39:34;2.75;;;2.60;;
32152;SDS011;18656;50.580;11.392;2022-07-30T06:42:21;2.97;;;2.67;;
32152;SDS011;18656;50.580;11.392;2022-07-30T06:44:48;2.75;;;2.55;;
32152;SDS011;18656;50.580;11.392;2022-07-30T06:47:19;3.30;;;2.67;;
32152;SDS011;18656;50.580;11.392;2022-07-30T06:49:51;2.58;;;2.42;;
32152;SDS011;18656;50.580;11.392;2022-07-30T06:52:19;3.55;;;2.80;;
32152;SDS011;18656;50.580;11.392;2022-07-30T06:54:46;3.50;;;2.78;;
32152;SDS011;18656;50.580;11.392;2022-07-30T06:57:13;2.63;;;2.42;;
32152;SDS011;18656;50.580;11.392;2022-07-30T06:59:41;2.80;;;2.35;;
32152;SDS011;18656;50.580;11.392;2022-07-30T07:02:22;3.25;;;2.95;;
32152;SDS011;18656;50.580;11.392;2022-07-30T07:04:49;2.88;;;2.67;;
32152;SDS011;18656;50.580;11.392;2022-07-30T07:07:16;2.83;;;2.58;;
32152;SDS011;18656;50.580;11.392;2022-07-30T07:10:04;2.75;;;2.55;;
32152;SDS011;18656;50.580;11.392;2022-07-30T07:12:31;2.88;;;2.58;;
32152;SDS011;18656;50.580;11.392;2022-07-30T07:14:58;3.50;;;2.70;;
32152;SDS011;18656;50.580;11.392;2022-07-30T07:17:25;3.53;;;2.50;;
32152;SDS011;18656;50.580;11.392;2022-07-30T07:19:53;3.13;;;2.50;;
32152;SDS011;18656;50.580;11.392;2022-07-30T07:22:27;3.10;;;2.80;;
32152;SDS011;18656;50.580;11.392;2022-07-30T07:24:54;3.25;;;2.78;;
32152;SDS011;18656;50.580;11.392;2022-07-30T07:27:22;2.50;;;2.30;;
32152;SDS011;18656;50.580;11.392;2022-07-30T07:29:49;3.05;;;2.80;;
32152;SDS011;18656;50.580;11.392;2022-07-30T07:32:31;3.60;;;2.60;;
32152;SDS011;18656;50.580;11.392;2022-07-30T07:34:59;4.40;;;4.00;;
32152;SDS011;18656;50.580;11.392;2022-07-30T07:37:26;4.63;;;3.10;;
32152;SDS011;18656;50.580;11.392;2022-07-30T07:39:53;3.92;;;3.15;;
32152;SDS011;18656;50.580;11.392;2022-07-30T07:42:20;6.47;;;3.17;;
32152;SDS011;18656;50.580;11.392;2022-07-30T07:44:48;4.22;;;3.40;;
32152;SDS011;18656;50.580;11.392;2022-07-30T07:47:15;2.88;;;2.67;;
32152;SDS011;18656;50.580;11.392;2022-07-30T07:49:43;3.35;;;2.72;;
32152;SDS011;18656;50.580;11.392;2022-07-30T07:52:10;2.70;;;2.10;;
32152;SDS011;18656;50.580;11.392;2022-07-30T07:54:37;2.25;;;2.08;;
32152;SDS011;18656;50.580;11.392;2022-07-30T07:57:04;2.55;;;1.98;;
32152;SDS011;18656;50.580;11.392;2022-07-30T07:59:35;2.15;;;1.90;;
32152;SDS011;18656;50.580;11.392;2022-07-30T08:02:06;2.45;;;1.65;;
32152;SDS011;18656;50.580;11.392;2022-07-30T08:04:34;1.90;;;1.80;;
32152;SDS011;18656;50.580;11.392;2022-07-30T08:07:01;2.30;;;2.10;;
32152;SDS011;18656;50.580;11.392;2022-07-30T08:09:29;3.22;;;2.15;;
32152;SDS011;18656;50.580;11.392;2022-07-30T08:12:10;2.25;;;1.73;;
32152;SDS011;18656;50.580;11.392;2022-07-30T08:14:38;4.43;;;1.70;;
32152;SDS011;18656;50.580;11.392;2022-07-30T08:17:05;1.98;;;1.65;;
32152;SDS011;18656;50.580;11.392;2022-07-30T08:19:33;1.88;;;1.77;;
32152;SDS011;18656;50.580;11.392;2022-07-30T08:22:01;2.97;;;1.85;;
32152;SDS011;18656;50.580;11.392;2022-07-30T08:24:28;2.65;;;1.70;;
32152;SDS011;18656;50.580;11.392;2022-07-30T08:26:55;2.30;;;1.50;;
32152;SDS011;18656;50.580;11.392;2022-07-30T08:29:22;5.65;;;1.95;;
32152;SDS011;18656;50.580;11.392;2022-07-30T08:31:49;2.53;;;2.00;;
32152;SDS011;18656;50.580;11.392;2022-07-30T08:34:17;3.63;;;1.90;;
32152;SDS011;18656;50.580;11.392;2022-07-30T08:36:51;2.00;;;1.85;;
32152;SDS011;18656;50.580;11.392;2022-07-30T08:39:18;4.60;;;2.38;;
32152;SDS011;18656;50.580;11.392;2022-07-30T08:41:45;2.05;;;1.95;;
32152;SDS011;18656;50.580;11.392;2022-07-30T08:44:12;2.00;;;1.90;;
32152;SDS011;18656;50.580;11.392;2022-07-30T08:46:43;1.75;;;1.67;;
32152;SDS011;18656;50.580;11.392;2022-07-30T08:49:13;3.92;;;2.20;;
32152;SDS011;18656;50.580;11.392;2022-07-30T08:51:40;2.20;;;2.10;;
32152;SDS011;18656;50.580;11.392;2022-07-30T08:54:09;2.10;;;1.90;;
32152;SDS011;18656;50.580;11.392;2022-07-30T08:56:37;4.18;;;2.20;;
32152;SDS011;18656;50.580;11.392;2022-07-30T08:59:05;2.13;;;1.73;;
32152;SDS011;18656;50.580;11.392;2022-07-30T09:01:32;3.22;;;2.20;;
32152;SDS011;18656;50.580;11.392;2022-07-30T09:03:59;2.47;;;2.13;;
32152;SDS011;18656;50.580;11.392;2022-07-30T09:06:26;2.83;;;1.77;;
32152;SDS011;18656;50.580;11.392;2022-07-30T09:08:54;3.92;;;1.90;;
32152;SDS011;18656;50.580;11.392;2022-07-30T09:11:21;1.70;;;1.60;;
32152;SDS011;18656;50.580;11.392;2022-07-30T09:13:48;2.78;;;2.03;;
32152;SDS011;18656;50.580;11.392;2022-07-30T09:16:20;2.10;;;1.90;;
32152;SDS011;18656;50.580;11.392;2022-07-30T09:18:47;3.08;;;2.08;;
32152;SDS011;18656;50.580;11.392;2022-07-30T09:23:59;2.45;;;2.25;;
32152;SDS011;18656;50.580;11.392;2022-07-30T09:26:27;3.45;;;2.10;;
32152;SDS011;18656;50.580;11.392;2022-07-30T09:28:55;3.42;;;2.22;;
32152;SDS011;18656;50.580;11.392;2022-07-30T09:31:57;2.80;;;2.00;;
32152;SDS011;18656;50.580;11.392;2022-07-30T09:34:32;1.70;;;1.60;;
32152;SDS011;18656;50.580;11.392;2022-07-30T09:37:03;3.35;;;1.70;;
32152;SDS011;18656;50.580;11.392;2022-07-30T09:39:38;4.32;;;1.98;;
32152;SDS011;18656;50.580;11.392;2022-07-30T09:42:16;6.18;;;1.80;;
32152;SDS011;18656;50.580;11.392;2022-07-30T09:44:43;2.88;;;1.90;;
32152;SDS011;18656;50.580;11.392;2022-07-30T09:50:01;3.55;;;1.70;;
32152;SDS011;18656;50.580;11.392;2022-07-30T09:52:33;1.75;;;1.65;;
32152;SDS011;18656;50.580;11.392;2022-07-30T09:55:00;1.80;;;1.70;;
32152;SDS011;18656;50.580;11.392;2022-07-30T09:57:28;2.80;;;1.90;;
32152;SDS011;18656;50.580;11.392;2022-07-30T09:59:57;4.10;;;2.00;;
32152;SDS011;18656;50.580;11.392;2022-07-30T10:02:27;3.17;;;1.50;;
32152;SDS011;18656;50.580;11.392;2022-07-30T10:05:10;3.60;;;1.50;;
32152;SDS011;18656;50.580;11.392;2022-07-30T10:07:46;3.40;;;2.00;;
32152;SDS011;18656;50.580;11.392;2022-07-30T10:10:17;1.60;;;1.48;;
32152;SDS011;18656;50.580;11.392;2022-07-30T10:12:45;3.22;;;1.27;;
32152;SDS011;18656;50.580;11.392;2022-07-30T10:15:13;2.85;;;1.52;;
32152;SDS011;18656;50.580;11.392;2022-07-30T10:17:41;1.95;;;1.60;;
32152;SDS011;18656;50.580;11.392;2022-07-30T10:20:08;2.05;;;1.33;;
32152;SDS011;18656;50.580;11.392;2022-07-30T10:22:37;1.65;;;1.55;;
32152;SDS011;18656;50.580;11.392;2022-07-30T10:25:04;1.70;;;1.60;;
32152;SDS011;18656;50.580;11.392;2022-07-30T10:27:32;1.90;;;1.65;;
32152;SDS011;18656;50.580;11.392;2022-07-30T10:29:59;1.92;;;1.75;;
32152;SDS011;18656;50.580;11.392;2022-07-30T10:32:29;2.03;;;1.85;;
32152;SDS011;18656;50.580;11.392;2022-07-30T10:34:58;3.42;;;1.98;;
32152;SDS011;18656;50.580;11.392;2022-07-30T10:37:26;3.72;;;1.80;;
32152;SDS011;18656;50.580;11.392;2022-07-30T10:39:55;2.50;;;1.85;;
32152;SDS011;18656;50.580;11.392;2022-07-30T10:42:38;2.00;;;1.50;;
32152;SDS011;18656;50.580;11.392;2022-07-30T10:47:42;2.63;;;1.77;;
32152;SDS011;18656;50.580;11.392;2022-07-30T10:50:15;3.30;;;1.42;;
32152;SDS011;18656;50.580;11.392;2022-07-30T10:55:20;1.50;;;1.33;;
32152;SDS011;18656;50.580;11.392;2022-07-30T10:58:07;4.60;;;1.65;;
32152;SDS011;18656;50.580;11.392;2022-07-30T11:00:57;1.67;;;1.40;;
32152;SDS011;18656;50.580;11.392;2022-07-30T11:03:27;2.72;;;1.80;;
32152;SDS011;18656;50.580;11.392;2022-07-30T11:08:42;1.38;;;1.38;;
32152;SDS011;18656;50.580;11.392;2022-07-30T11:14:06;1.95;;;1.77;;
32152;SDS011;18656;50.580;11.392;2022-07-30T11:19:03;2.15;;;1.45;;
32152;SDS011;18656;50.580;11.392;2022-07-30T11:24:44;2.38;;;1.60;;
32152;SDS011;18656;50.580;11.392;2022-07-30T11:27:54;1.88;;;1.77;;
32152;SDS011;18656;50.580;11.392;2022-07-30T11:30:46;3.35;;;1.75;;
32152;SDS011;18656;50.580;11.392;2022-07-30T11:32:55;1.70;;;1.60;;
32152;SDS011;18656;50.580;11.392;2022-07-30T11:35:29;1.73;;;1.60;;
32152;SDS011;18656;50.580;11.392;2022-07-30T11:38:13;1.73;;;1.55;;
32152;SDS011;18656;50.580;11.392;2022-07-30T11:46:08;3.22;;;1.90;;
32152;SDS011;18656;50.580;11.392;2022-07-30T11:48:38;1.92;;;1.80;;
32152;SDS011;18656;50.580;11.392;2022-07-30T11:51:06;3.60;;;2.42;;
32152;SDS011;18656;50.580;11.392;2022-07-30T11:53:34;2.10;;;2.00;;
32152;SDS011;18656;50.580;11.392;2022-07-30T11:56:01;2.30;;;2.10;;
32152;SDS011;18656;50.580;11.392;2022-07-30T11:58:36;9.93;;;3.13;;
32152;SDS011;18656;50.580;11.392;2022-07-30T12:01:12;5.60;;;3.17;;
32152;SDS011;18656;50.580;11.392;2022-07-30T12:03:40;9.73;;;3.33;;
32152;SDS011;18656;50.580;11.392;2022-07-30T12:06:08;11.40;;;3.22;;
32152;SDS011;18656;50.580;11.392;2022-07-30T12:08:39;6.70;;;3.65;;
32152;SDS011;18656;50.580;11.392;2022-07-30T12:11:07;3.53;;;3.00;;
32152;SDS011;18656;50.580;11.392;2022-07-30T12:13:34;4.25;;;3.38;;
32152;SDS011;18656;50.580;11.392;2022-07-30T12:16:11;4.00;;;3.70;;
32152;SDS011;18656;50.580;11.392;2022-07-30T12:18:38;4.82;;;3.55;;
32152;SDS011;18656;50.580;11.392;2022-07-30T12:21:06;3.88;;;3.33;;
32152;SDS011;18656;50.580;11.392;2022-07-30T12:23:34;5.07;;;3.67;;
32152;SDS011;18656;50.580;11.392;2022-07-30T12:26:01;3.50;;;3.20;;
32152;SDS011;18656;50.580;11.392;2022-07-30T12:28:29;4.28;;;3.55;;
32152;SDS011;18656;50.580;11.392;2022-07-30T12:30:56;3.35;;;3.00;;
32152;SDS011;18656;50.580;11.392;2022-07-30T12:33:24;2.95;;;2.75;;
32152;SDS011;18656;50.580;11.392;2022-07-30T12:35:52;3.38;;;3.17;;
32152;SDS011;18656;50.580;11.392;2022-07-30T12:38:21;8.20;;;3.72;;
32152;SDS011;18656;50.580;11.392;2022-07-30T12:40:55;5.50;;;3.50;;
32152;SDS011;18656;50.580;11.392;2022-07-30T12:46:10;2.95;;;2.40;;
32152;SDS011;18656;50.580;11.392;2022-07-30T12:48:56;3.00;;;2.33;;
32152;SDS011;18656;50.580;11.392;2022-07-30T12:51:49;3.35;;;2.20;;
32152;SDS011;18656;50.580;11.392;2022-07-30T12:54:26;3.15;;;2.05;;
32152;SDS011;18656;50.580;11.392;2022-07-30T12:56:58;2.30;;;2.20;;
32152;SDS011;18656;50.580;11.392;2022-07-30T12:59:27;2.63;;;2.30;;
32152;SDS011;18656;50.580;11.392;2022-07-30T13:01:56;2.10;;;2.00;;
32152;SDS011;18656;50.580;11.392;2022-07-30T13:04:26;2.50;;;2.30;;
32152;SDS011;18656;50.580;11.392;2022-07-30T13:09:31;2.85;;;2.28;;
32152;SDS011;18656;50.580;11.392;2022-07-30T13:11:58;2.85;;;2.47;;
32152;SDS011;18656;50.580;11.392;2022-07-30T13:14:25;2.67;;;2.47;;
32152;SDS011;18656;50.580;11.392;2022-07-30T13:16:53;3.80;;;2.92;;
32152;SDS011;18656;50.580;11.392;2022-07-30T13:19:24;3.30;;;3.00;;
32152;SDS011;18656;50.580;11.392;2022-07-30T13:21:51;10.68;;;3.47;;
32152;SDS011;18656;50.580;11.392;2022-07-30T13:24:19;4.05;;;3.60;;
32152;SDS011;18656;50.580;11.392;2022-07-30T13:26:46;3.65;;;3.25;;
32152;SDS011;18656;50.580;11.392;2022-07-30T13:29:16;4.30;;;3.92;;
32152;SDS011;18656;50.580;11.392;2022-07-30T13:31:43;5.65;;;3.55;;
32152;SDS011;18656;50.580;11.392;2022-07-30T13:34:10;5.65;;;4.20;;
32152;SDS011;18656;50.580;11.392;2022-07-30T13:36:38;4.50;;;3.40;;
32152;SDS011;18656;50.580;11.392;2022-07-30T13:39:05;3.53;;;3.33;;
32152;SDS011;18656;50.580;11.392;2022-07-30T13:41:32;3.80;;;3.60;;
32152;SDS011;18656;50.580;11.392;2022-07-30T13:44:01;3.67;;;3.40;;
32152;SDS011;18656;50.580;11.392;2022-07-30T13:46:28;4.07;;;3.75;;
32152;SDS011;18656;50.580;11.392;2022-07-30T13:48:55;3.00;;;2.80;;
32152;SDS011;18656;50.580;11.392;2022-07-30T13:51:22;3.05;;;2.85;;
32152;SDS011;18656;50.580;11.392;2022-07-30T13:53:50;3.40;;;3.20;;
32152;SDS011;18656;50.580;11.392;2022-07-30T13:56:17;4.38;;;3.20;;
32152;SDS011;18656;50.580;11.392;2022-07-30T13:58:45;3.03;;;2.83;;
32152;SDS011;18656;50.580;11.392;2022-07-30T14:01:12;4.47;;;3.13;;
32152;SDS011;18656;50.580;11.392;2022-07-30T14:03:43;3.50;;;3.20;;
32152;SDS011;18656;50.580;11.392;2022-07-30T14:06:16;2.67;;;2.55;;
32152;SDS011;18656;50.580;11.392;2022-07-30T14:08:43;2.90;;;2.70;;
32152;SDS011;18656;50.580;11.392;2022-07-30T14:11:10;2.78;;;2.58;;
32152;SDS011;18656;50.580;11.392;2022-07-30T14:13:38;2.63;;;2.42;;
32152;SDS011;18656;50.580;11.392;2022-07-30T14:16:05;2.50;;;2.40;;
32152;SDS011;18656;50.580;11.392;2022-07-30T14:18:52;2.67;;;2.47;;
32152;SDS011;18656;50.580;11.392;2022-07-30T14:21:20;2.67;;;2.50;;
32152;SDS011;18656;50.580;11.392;2022-07-30T14:23:47;2.42;;;2.33;;
32152;SDS011;18656;50.580;11.392;2022-07-30T14:26:14;3.17;;;2.88;;
32152;SDS011;18656;50.580;11.392;2022-07-30T14:28:42;2.65;;;2.45;;
32152;SDS011;18656;50.580;11.392;2022-07-30T14:31:09;4.05;;;2.60;;
32152;SDS011;18656;50.580;11.392;2022-07-30T14:33:36;3.05;;;2.78;;
32152;SDS011;18656;50.580;11.392;2022-07-30T14:36:03;2.67;;;2.55;;
32152;SDS011;18656;50.580;11.392;2022-07-30T14:38:30;2.97;;;2.45;;
32152;SDS011;18656;50.580;11.392;2022-07-30T14:40:57;2.72;;;2.53;;
32152;SDS011;18656;50.580;11.392;2022-07-30T14:43:24;2.60;;;2.38;;
32152;SDS011;18656;50.580;11.392;2022-07-30T14:45:53;2.22;;;2.13;;
32152;SDS011;18656;50.580;11.392;2022-07-30T14:48:20;4.32;;;2.60;;
32152;SDS011;18656;50.580;11.392;2022-07-30T14:50:47;2.63;;;2.35;;
32152;SDS011;18656;50.580;11.392;2022-07-30T14:53:34;2.25;;;2.13;;
32152;SDS011;18656;50.580;11.392;2022-07-30T14:56:01;2.60;;;2.35;;
32152;SDS011;18656;50.580;11.392;2022-07-30T14:58:29;2.58;;;2.20;;
32152;SDS011;18656;50.580;11.392;2022-07-30T15:00:56;2.20;;;2.10;;
32152;SDS011;18656;50.580;11.392;2022-07-30T15:03:23;3.15;;;2.10;;
32152;SDS011;18656;50.580;11.392;2022-07-30T15:05:51;2.60;;;2.40;;
32152;SDS011;18656;50.580;11.392;2022-07-30T15:08:18;2.85;;;2.40;;
32152;SDS011;18656;50.580;11.392;2022-07-30T15:10:46;2.80;;;2.60;;
32152;SDS011;18656;50.580;11.392;2022-07-30T15:13:13;4.00;;;2.25;;
32152;SDS011;18656;50.580;11.392;2022-07-30T15:15:41;2.33;;;2.22;;
32152;SDS011;18656;50.580;11.392;2022-07-30T15:18:11;2.60;;;2.40;;
32152;SDS011;18656;50.580;11.392;2022-07-30T15:20:38;3.10;;;2.55;;
32152;SDS011;18656;50.580;11.392;2022-07-30T15:23:05;2.50;;;2.30;;